UA5405 / N881AS 7700 Squawk Report (28th of November, 2022)

Aircraft CRJ2 Reg No. N881AS Age N/A
Model Regional-Jet Jet engines 2 First flight 08-01
Registered 25-06-19 Rollout 08-01 Delivered 23-08-01
Construction No. 7496 Line No. N/A Series 200ER
ADSHEX AC219D Airline name United Express Owner SkyWest Airlines
Airfield based Chicago O`Hare~IL~N First tracked N/A

Flight history for N881AS

Route Flight No Date Playback
Asheville Regional Airport (AVL) - Chicago Ohare Intl (ORD) UA4640 2023-02-07 20:39:00
Chicago Ohare Intl (ORD) - Asheville Regional Airport (AVL) UA4793 2023-02-07 18:40:00
Houghton County Memorial Airport (CMX) - Chicago Ohare Intl (ORD) UA5017 2023-02-07 15:49:00
Chicago Ohare Intl (ORD) - Houghton County Memorial Airport (CMX) UA5140 2023-02-07 02:32:00
Yeager (CRW) - Chicago Ohare Intl (ORD) UA5290 2023-02-07 01:40:00
Chicago Ohare Intl (ORD) - Yeager (CRW) UA4787 2023-02-06 22:31:00
Houghton County Memorial Airport (CMX) - Chicago Ohare Intl (ORD) UA5017 2023-02-06 15:39:00
Chicago Ohare Intl (ORD) - Houghton County Memorial Airport (CMX) UA5140 2023-02-06 02:23:00
Yeager (CRW) - Chicago Ohare Intl (ORD) UA5290 2023-02-06 00:03:00
Chicago Ohare Intl (ORD) - Yeager (CRW) UA4787 2023-02-05 22:38:00
???? N/A 2023-02-01 21:03:00
Westchester Co (HPN) - Chicago Ohare Intl (ORD) UA5278 2023-01-30 00:07:00
Chicago Ohare Intl (ORD) - Westchester Co (HPN) UA5710 2023-01-29 21:37:00
Wilkes Barre Scranton Intl (AVP) - Chicago Ohare Intl (ORD) UA4641 2023-01-28 02:59:00
Chicago Ohare Intl (ORD) - Wilkes Barre Scranton Intl (AVP) UA4790 2023-01-27 23:56:00
Lincoln (LNK) - Chicago Ohare Intl (ORD) UA4774 2023-01-27 21:32:00
Chicago Ohare Intl (ORD) - Lincoln (LNK) UA5241 2023-01-27 19:42:00
Yeager (CRW) - Chicago Ohare Intl (ORD) UA4679 2023-01-27 16:19:00
Chicago Ohare Intl (ORD) - Yeager (CRW) UA4806 2023-01-27 04:06:00
Decatur (DEC) - Chicago Ohare Intl (ORD) UA5042 2023-01-27 02:12:00
Time Lat Lon Altitude Heading Speed Vertical Rate
2022-11-28 01:23:19 GMT 37.619659 -122.385605 0 208 0 96
2022-11-28 01:22:12 GMT 37.619659 -122.385605 0 208 0 96
2022-11-28 01:22:03 GMT 37.619667 -122.385605 0 208 0 96
2022-11-28 01:21:22 GMT 37.619659 -122.385605 0 208 0 96
2022-11-28 01:20:13 GMT 37.619667 -122.385605 0 208 0 96
2022-11-28 01:19:42 GMT 37.619659 -122.385605 0 208 0 96
2022-11-28 01:18:10 GMT 37.619656 -122.385605 0 208 0 96
2022-11-28 01:18:00 GMT 37.619667 -122.385605 0 208 0 96
2022-11-28 01:17:52 GMT 37.619610 -122.385628 0 209 8 96
2022-11-28 01:17:49 GMT 37.619678 -122.385582 0 209 8 96
2022-11-28 01:17:46 GMT 37.619759 -122.385529 0 209 8 96
2022-11-28 01:17:43 GMT 37.619820 -122.385498 0 209 8 96
2022-11-28 01:17:40 GMT 37.619888 -122.385452 0 209 8 96
2022-11-28 01:17:37 GMT 37.619968 -122.385391 0 210 11 96
2022-11-28 01:17:34 GMT 37.620090 -122.385307 0 210 11 96
2022-11-28 01:17:32 GMT 37.620152 -122.385262 0 209 11 96
2022-11-28 01:17:29 GMT 37.620281 -122.385170 0 207 10 96
2022-11-28 01:17:27 GMT 37.620361 -122.385094 0 197 10 96
2022-11-28 01:17:24 GMT 37.620480 -122.384979 0 179 10 96
2022-11-28 01:17:21 GMT 37.620640 -122.384941 0 153 8 96
2022-11-28 01:17:18 GMT 37.620781 -122.384956 0 141 8 96
2022-11-28 01:17:15 GMT 37.620972 -122.385162 0 129 10 96
2022-11-28 01:17:12 GMT 37.620972 -122.385162 0 119 11 96
2022-11-28 01:17:09 GMT 37.621021 -122.385269 0 125 11 96
2022-11-28 01:17:06 GMT 37.621159 -122.385452 0 108 11 96
2022-11-28 01:17:03 GMT 37.621181 -122.385597 0 119 11 96
2022-11-28 01:17:00 GMT 37.621269 -122.385788 0 111 7 96
2022-11-28 01:16:57 GMT 37.621330 -122.385902 0 123 7 96
2022-11-28 01:16:54 GMT 37.621349 -122.386093 0 143 7 96
2022-11-28 01:16:51 GMT 37.621460 -122.386192 0 139 7 96
2022-11-28 01:16:48 GMT 37.621540 -122.386253 0 163 7 96
2022-11-28 01:16:46 GMT 37.621552 -122.386337 0 185 13 96
2022-11-28 01:16:43 GMT 37.621639 -122.386330 0 194 13 96
2022-11-28 01:16:40 GMT 37.621811 -122.386330 0 223 7 96
2022-11-28 01:16:37 GMT 37.621899 -122.386261 0 234 7 96
2022-11-28 01:16:34 GMT 37.621990 -122.386139 0 247 7 96
2022-11-28 01:16:31 GMT 37.622051 -122.386002 0 254 7 96
2022-11-28 01:16:28 GMT 37.622101 -122.385872 0 264 7 96
2022-11-28 01:16:25 GMT 37.622120 -122.385658 0 253 7 96
2022-11-28 01:16:22 GMT 37.622150 -122.385559 0 267 13 96
2022-11-28 01:16:16 GMT 37.622162 -122.385117 0 265 15 96
2022-11-28 01:16:13 GMT 37.622169 -122.384880 0 264 15 96
2022-11-28 01:16:10 GMT 37.622189 -122.384651 0 266 15 96
2022-11-28 01:16:07 GMT 37.622200 -122.384392 0 267 17 96
2022-11-28 01:16:04 GMT 37.622200 -122.384102 0 267 17 96
2022-11-28 01:16:01 GMT 37.622219 -122.383797 0 268 17 96
2022-11-28 01:15:58 GMT 37.622211 -122.383507 0 266 17 96
2022-11-28 01:15:55 GMT 37.622219 -122.383202 0 264 17 96
2022-11-28 01:15:52 GMT 37.622250 -122.382912 0 266 15 96
2022-11-28 01:15:49 GMT 37.622261 -122.382629 0 266 15 96
2022-11-28 01:15:46 GMT 37.622280 -122.382339 0 268 15 96
2022-11-28 01:15:43 GMT 37.622292 -122.382080 0 269 15 96
2022-11-28 01:15:40 GMT 37.622299 -122.381783 0 268 15 96
2022-11-28 01:15:37 GMT 37.622292 -122.381561 0 269 15 96
2022-11-28 01:15:34 GMT 37.622292 -122.381317 0 267 7 96
2022-11-28 01:15:31 GMT 37.622311 -122.381187 0 273 5 96
2022-11-28 01:15:28 GMT 37.622299 -122.381081 0 265 2 96
2022-11-28 01:15:22 GMT 37.622299 -122.381020 0 265 1 96
2022-11-28 01:15:16 GMT 37.622299 -122.381027 0 265 1 96
2022-11-28 01:15:13 GMT 37.622292 -122.381027 0 265 1 96
2022-11-28 01:15:10 GMT 37.622292 -122.381020 0 265 1 96
2022-11-28 01:15:01 GMT 37.622292 -122.381027 0 265 1 96
2022-11-28 01:14:55 GMT 37.622292 -122.381012 0 265 1 96
2022-11-28 01:14:52 GMT 37.622299 -122.381020 0 265 1 96
2022-11-28 01:14:49 GMT 37.622299 -122.381012 0 265 1 96
2022-11-28 01:14:46 GMT 37.622299 -122.381020 0 265 1 96
2022-11-28 01:14:43 GMT 37.622292 -122.380997 0 265 0 96
2022-11-28 01:14:37 GMT 37.622311 -122.380997 0 265 0 96
2022-11-28 01:14:34 GMT 37.622311 -122.381012 0 265 0 96
2022-11-28 01:14:31 GMT 37.622292 -122.381020 0 265 0 96
2022-11-28 01:14:28 GMT 37.622280 -122.381042 0 265 4 96
2022-11-28 01:14:25 GMT 37.622280 -122.381012 0 266 4 96
2022-11-28 01:14:22 GMT 37.622292 -122.380981 0 267 4 96
2022-11-28 01:14:19 GMT 37.622292 -122.380913 0 269 4 96
2022-11-28 01:14:16 GMT 37.622299 -122.380852 0 274 4 96
2022-11-28 01:14:13 GMT 37.622269 -122.380829 0 266 7 96
2022-11-28 01:14:10 GMT 37.622280 -122.380707 0 267 8 96
2022-11-28 01:14:07 GMT 37.622292 -122.380592 0 269 8 96
2022-11-28 01:14:04 GMT 37.622280 -122.380440 0 266 8 96
2022-11-28 01:14:01 GMT 37.622292 -122.380287 0 267 8 96
2022-11-28 01:13:58 GMT 37.622292 -122.380157 0 264 12 96
2022-11-28 01:13:55 GMT 37.622299 -122.379997 0 270 11 96
2022-11-28 01:13:52 GMT 37.622292 -122.379822 0 264 13 96
2022-11-28 01:13:49 GMT 37.622318 -122.379608 0 270 13 96
2022-11-28 01:13:46 GMT 37.622311 -122.379387 0 270 14 96
2022-11-28 01:13:43 GMT 37.622330 -122.379143 0 276 16 96
2022-11-28 01:13:40 GMT 37.622299 -122.378891 0 276 16 96
2022-11-28 01:13:37 GMT 37.622292 -122.378616 0 279 14 96
2022-11-28 01:13:34 GMT 37.622261 -122.378349 0 282 14 96
2022-11-28 01:13:32 GMT 37.622238 -122.378166 0 285 11 96
2022-11-28 01:13:29 GMT 37.622200 -122.377937 0 290 11 96
2022-11-28 01:13:26 GMT 37.622139 -122.377747 0 291 10 96
2022-11-28 01:13:23 GMT 37.622089 -122.377571 0 294 8 96
2022-11-28 01:13:20 GMT 37.622051 -122.377434 0 298 6 96
2022-11-28 01:13:14 GMT 37.621960 -122.377228 0 299 1 96
2022-11-28 01:13:11 GMT 37.621910 -122.377129 0 295 1 96
2022-11-28 01:13:08 GMT 37.621899 -122.377113 0 295 1 96
2022-11-28 01:13:05 GMT 37.621922 -122.377129 0 295 1 96
2022-11-28 01:13:02 GMT 37.621910 -122.377121 0 295 1 96
2022-11-28 01:12:53 GMT 37.621910 -122.377113 0 295 1 96
2022-11-28 01:12:50 GMT 37.621910 -122.377098 0 295 1 96
2022-11-28 01:12:41 GMT 37.621910 -122.377121 0 295 1 96
2022-11-28 01:12:38 GMT 37.621922 -122.377121 0 295 1 96
2022-11-28 01:12:32 GMT 37.621910 -122.377121 0 295 1 96
2022-11-28 01:12:26 GMT 37.621910 -122.377113 0 295 1 96
2022-11-28 01:12:23 GMT 37.621910 -122.377098 0 295 1 96
2022-11-28 01:12:20 GMT 37.621899 -122.377098 0 295 1 96
2022-11-28 01:12:17 GMT 37.621899 -122.377090 0 295 1 96
2022-11-28 01:12:14 GMT 37.621910 -122.377113 0 295 0 96
2022-11-28 01:12:06 GMT 37.621899 -122.377113 0 295 1 96
2022-11-28 01:11:57 GMT 37.621899 -122.377098 0 295 1 96
2022-11-28 01:11:51 GMT 37.621899 -122.377113 0 295 1 96
2022-11-28 01:11:48 GMT 37.621887 -122.377113 0 295 1 96
2022-11-28 01:11:45 GMT 37.621899 -122.377113 0 295 1 96
2022-11-28 01:11:42 GMT 37.621899 -122.377121 0 295 1 96
2022-11-28 01:11:34 GMT 37.621891 -122.377106 0 295 1 96
2022-11-28 01:11:27 GMT 37.621910 -122.377121 0 295 1 96
2022-11-28 01:11:24 GMT 37.621899 -122.377121 0 295 1 96
2022-11-28 01:11:18 GMT 37.621899 -122.377113 0 295 1 96
2022-11-28 01:11:12 GMT 37.621910 -122.377113 0 295 1 96
2022-11-28 01:11:06 GMT 37.621899 -122.377098 0 295 1 96
2022-11-28 01:11:03 GMT 37.621891 -122.377098 0 295 1 96
2022-11-28 01:11:00 GMT 37.621910 -122.377113 0 295 1 96
2022-11-28 01:10:54 GMT 37.621887 -122.377098 0 295 1 96
2022-11-28 01:10:46 GMT 37.621910 -122.377113 0 295 1 96
2022-11-28 01:10:37 GMT 37.621891 -122.377106 0 298 0 0
2022-11-28 01:10:28 GMT 37.621910 -122.377113 0 295 1 96
2022-11-28 01:10:25 GMT 37.621910 -122.377098 0 295 1 96
2022-11-28 01:10:16 GMT 37.621910 -122.377113 0 295 1 96
2022-11-28 01:10:13 GMT 37.621910 -122.377121 0 295 1 96
2022-11-28 01:10:07 GMT 37.621910 -122.377113 0 295 1 96
2022-11-28 01:10:04 GMT 37.621910 -122.377113 0 295 1 96
2022-11-28 01:10:01 GMT 37.621910 -122.377113 0 295 1 96
2022-11-28 01:09:55 GMT 37.621910 -122.377121 0 295 1 96
2022-11-28 01:09:46 GMT 37.621910 -122.377121 0 295 1 96
2022-11-28 01:09:40 GMT 37.621910 -122.377113 0 295 1 96
2022-11-28 01:09:37 GMT 37.621910 -122.377121 0 295 1 96
2022-11-28 01:09:31 GMT 37.621910 -122.377113 0 295 1 96
2022-11-28 01:09:28 GMT 37.621899 -122.377113 0 295 1 96
2022-11-28 01:09:22 GMT 37.621899 -122.377121 0 295 1 96
2022-11-28 01:09:19 GMT 37.621899 -122.377113 0 295 1 96
2022-11-28 01:09:17 GMT 37.621899 -122.377121 0 295 1 96
2022-11-28 01:09:11 GMT 37.621899 -122.377098 0 297 0 96
2022-11-28 01:09:06 GMT 37.621899 -122.377113 0 297 1 96
2022-11-28 01:09:03 GMT 37.621880 -122.377098 0 297 1 96
2022-11-28 01:09:00 GMT 37.621910 -122.377113 0 297 1 96
2022-11-28 01:08:57 GMT 37.621922 -122.377098 0 297 1 96
2022-11-28 01:08:54 GMT 37.621910 -122.377113 0 297 1 96
2022-11-28 01:08:51 GMT 37.621880 -122.377113 0 297 1 96
2022-11-28 01:08:48 GMT 37.621922 -122.377129 0 306 0 96
2022-11-28 01:08:45 GMT 37.621922 -122.377121 0 306 0 96
2022-11-28 01:08:40 GMT 37.621887 -122.377113 0 306 0 96
2022-11-28 01:08:37 GMT 37.621910 -122.377113 0 306 0 96
2022-11-28 01:08:34 GMT 37.621899 -122.377113 0 306 0 96
2022-11-28 01:08:28 GMT 37.621899 -122.377098 0 306 0 96
2022-11-28 01:08:24 GMT 37.621887 -122.377113 0 306 0 96
2022-11-28 01:08:20 GMT 37.621899 -122.377098 0 306 0 96
2022-11-28 01:08:16 GMT 37.621887 -122.377113 0 298 0 0
2022-11-28 01:08:11 GMT 37.621899 -122.377113 0 306 0 96
2022-11-28 01:08:08 GMT 37.621899 -122.377098 0 306 0 96
2022-11-28 01:08:03 GMT 37.621899 -122.377113 0 306 0 96
2022-11-28 01:07:58 GMT 37.621910 -122.377113 0 306 1 96
2022-11-28 01:07:55 GMT 37.621922 -122.377121 0 298 13 96
2022-11-28 01:07:46 GMT 37.621399 -122.375923 0 298 56 0
2022-11-28 01:07:42 GMT 37.620792 -122.374474 -100 298 91 0
2022-11-28 01:07:38 GMT 37.620029 -122.372673 -100 297 97 96
2022-11-28 01:07:35 GMT 37.619419 -122.371170 -75 297 108 96
2022-11-28 01:07:32 GMT 37.618721 -122.369476 -75 298 118 96
2022-11-28 01:07:29 GMT 37.617920 -122.367653 -75 298 124 96
2022-11-28 01:07:26 GMT 37.617111 -122.365738 -75 297 132 96
2022-11-28 01:07:23 GMT 37.616280 -122.363701 -75 297 144 -832
2022-11-28 01:07:20 GMT 37.615391 -122.361588 0 296 144 -832
2022-11-28 01:07:16 GMT 37.613892 -122.358070 0 296 144 -832
2022-11-28 01:07:13 GMT 37.613136 -122.356293 25 299 142 -704
2022-11-28 01:07:09 GMT 37.612041 -122.353653 125 298 143 -608
2022-11-28 01:07:06 GMT 37.611099 -122.351448 125 296 145 -608
2022-11-28 01:07:03 GMT 37.610161 -122.349152 200 297 151 -608
2022-11-28 01:07:00 GMT 37.609211 -122.346832 200 297 148 -608
2022-11-28 01:06:57 GMT 37.608250 -122.344559 250 298 154 -608
2022-11-28 01:06:54 GMT 37.607208 -122.342178 275 298 155 -608
2022-11-28 01:06:51 GMT 37.606190 -122.339828 425 298 155 -608
2022-11-28 01:06:48 GMT 37.604992 -122.337242 350 299 152 -448
2022-11-28 01:06:45 GMT 37.604153 -122.335152 350 298 153 -512
2022-11-28 01:06:42 GMT 37.603149 -122.332870 425 295 154 -608
2022-11-28 01:06:40 GMT 37.602551 -122.331223 425 295 154 -608
2022-11-28 01:06:37 GMT 37.601620 -122.328773 700 296 155 -1152
2022-11-28 01:06:34 GMT 37.600430 -122.325836 550 298 158 -608
2022-11-28 01:06:31 GMT 37.599731 -122.323830 650 298 158 -608
2022-11-28 01:06:28 GMT 37.597412 -122.318504 625 300 158 -832
2022-11-28 01:06:25 GMT 37.597412 -122.318504 625 300 158 -832
2022-11-28 01:06:22 GMT 37.596085 -122.315643 700 301 157 -896
2022-11-28 01:06:19 GMT 37.595440 -122.314217 750 299 158 -608
2022-11-28 01:06:16 GMT 37.594341 -122.311882 850 297 155 -608
2022-11-28 01:06:13 GMT 37.593269 -122.309341 850 296 155 -608
2022-11-28 01:06:10 GMT 37.592251 -122.306770 900 296 155 -608
2022-11-28 01:06:07 GMT 37.591240 -122.304176 975 297 165 -1408
2022-11-28 01:06:02 GMT 37.589630 -122.300163 1,150 297 162 -1280
2022-11-28 01:05:56 GMT 37.587765 -122.295624 1,150 297 161 -896
2022-11-28 01:05:52 GMT 37.586044 -122.291267 1,275 297 159 -768
2022-11-28 01:05:48 GMT 37.584972 -122.288635 1,275 298 158 -768
2022-11-28 01:05:47 GMT 37.584595 -122.287704 1,275 298 157 -704
2022-11-28 01:05:43 GMT 37.583313 -122.284668 1,325 300 156 -576
2022-11-28 01:05:41 GMT 37.582413 -122.282669 1,375 301 155 -576
2022-11-28 01:05:35 GMT 37.580086 -122.277534 1,425 301 153 -512
2022-11-28 01:05:31 GMT 37.578690 -122.274605 1,425 300 152 -512
2022-11-28 01:05:24 GMT 37.576401 -122.269417 1,525 301 151 -640
2022-11-28 01:05:20 GMT 37.575348 -122.267136 1,525 301 151 -640
2022-11-28 01:05:18 GMT 37.574547 -122.265350 1,650 300 152 -640
2022-11-28 01:05:12 GMT 37.572464 -122.260826 1,625 300 153 -768
2022-11-28 01:05:10 GMT 37.570358 -122.256210 1,700 300 152 -960
2022-11-28 01:05:07 GMT 37.570358 -122.256210 1,725 300 153 -960
2022-11-28 01:05:02 GMT 37.568821 -122.252693 1,800 301 155 -1024
2022-11-28 01:04:58 GMT 37.567429 -122.249664 1,850 302 155 -1024
2022-11-28 01:04:57 GMT 37.566925 -122.248558 1,875 303 157 -1088
2022-11-28 01:04:56 GMT 37.566490 -122.247681 1,900 303 157 -1088
2022-11-28 01:04:55 GMT 37.566120 -122.246902 1,925 303 157 -1088
2022-11-28 01:04:53 GMT 37.565140 -122.244987 2,025 305 158 -1088
2022-11-28 01:04:50 GMT 37.564072 -122.243080 2,025 307 159 -1152
2022-11-28 01:04:48 GMT 37.563419 -122.241890 2,050 307 159 -1152
2022-11-28 01:04:46 GMT 37.562069 -122.239677 2,200 308 159 -1280
2022-11-28 01:04:40 GMT 37.559696 -122.236038 2,225 313 160 -1216
2022-11-28 01:04:37 GMT 37.558159 -122.233826 2,275 313 160 -1216
2022-11-28 01:04:35 GMT 37.556995 -122.232330 2,325 315 160 -1152
2022-11-28 01:04:34 GMT 37.556442 -122.231606 2,350 316 160 -1152
2022-11-28 01:04:32 GMT 37.555573 -122.230553 2,375 317 159 -1024
2022-11-28 01:04:31 GMT 37.555069 -122.229912 2,400 319 160 -704
2022-11-28 01:04:28 GMT 37.553421 -122.227982 2,425 319 160 -704
2022-11-28 01:04:26 GMT 37.552479 -122.226959 2,450 320 160 -640
2022-11-28 01:04:25 GMT 37.551773 -122.226112 2,475 320 159 -576
2022-11-28 01:04:22 GMT 37.548019 -122.222198 2,475 322 159 0
2022-11-28 01:04:18 GMT 37.548019 -122.222198 2,475 322 159 0
2022-11-28 01:04:16 GMT 37.546848 -122.220993 2,475 323 159 0
2022-11-28 01:04:14 GMT 37.543682 -122.217941 2,475 323 159 0
2022-11-28 01:04:10 GMT 37.543076 -122.217346 2,475 323 159 0
2022-11-28 01:04:07 GMT 37.541611 -122.215942 2,475 323 161 0
2022-11-28 01:04:06 GMT 37.540607 -122.214958 2,475 323 160 0
2022-11-28 01:04:05 GMT 37.540005 -122.214424 2,475 324 160 0
2022-11-28 01:04:03 GMT 37.539074 -122.213524 2,475 326 161 64
2022-11-28 01:04:02 GMT 37.538406 -122.212906 2,475 328 161 64
2022-11-28 01:04:01 GMT 37.537678 -122.212334 2,475 330 162 64
2022-11-28 01:03:59 GMT 37.536282 -122.211258 2,475 335 164 0
2022-11-28 01:03:58 GMT 37.535522 -122.210808 2,475 341 164 -64
2022-11-28 01:03:56 GMT 37.533718 -122.209946 2,475 341 164 -64
2022-11-28 01:03:53 GMT 37.532318 -122.209457 2,475 350 166 -256
2022-11-28 01:03:52 GMT 37.530762 -122.209167 2,500 0 170 -448
2022-11-28 01:03:50 GMT 37.530087 -122.209106 2,500 0 170 -448
2022-11-28 01:03:48 GMT 37.527992 -122.209229 2,525 8 174 -704
2022-11-28 01:03:46 GMT 37.526409 -122.209526 2,550 17 175 -832
2022-11-28 01:03:45 GMT 37.525726 -122.209755 2,575 17 175 -896
2022-11-28 01:03:44 GMT 37.524876 -122.210060 2,575 19 177 -896
2022-11-28 01:03:43 GMT 37.523010 -122.210899 2,625 23 179 -1024
2022-11-28 01:03:40 GMT 37.522221 -122.211319 2,650 23 179 -1088
2022-11-28 01:03:39 GMT 37.521477 -122.211739 2,650 24 179 -1152
2022-11-28 01:03:38 GMT 37.519730 -122.212730 2,700 25 180 -1216
2022-11-28 01:03:36 GMT 37.518997 -122.213203 2,725 25 180 -1216
2022-11-28 01:03:34 GMT 37.517845 -122.213882 2,750 25 180 -1280
2022-11-28 01:03:33 GMT 37.516754 -122.214546 2,775 25 180 -1408
2022-11-28 01:03:32 GMT 37.515976 -122.215012 2,825 25 180 -1472
2022-11-28 01:03:31 GMT 37.515144 -122.215500 2,850 25 180 -1536
2022-11-28 01:03:29 GMT 37.513687 -122.216293 2,900 25 180 -1472
2022-11-28 01:03:27 GMT 37.511765 -122.217468 2,950 25 180 -1472
2022-11-28 01:03:25 GMT 37.510910 -122.218002 2,975 25 180 -1472
2022-11-28 01:03:23 GMT 37.510117 -122.218521 3,000 25 179 -1472
2022-11-28 01:03:22 GMT 37.508881 -122.219215 3,050 25 180 -1472
2022-11-28 01:03:20 GMT 37.507324 -122.220154 3,100 25 180 -1472
2022-11-28 01:03:19 GMT 37.506317 -122.220795 3,125 26 180 -1472
2022-11-28 01:03:18 GMT 37.505585 -122.221268 3,150 26 179 -1472
2022-11-28 01:03:17 GMT 37.504765 -122.221764 3,200 26 179 -1472
2022-11-28 01:03:15 GMT 37.503204 -122.222725 3,250 26 180 -1472
2022-11-28 01:03:14 GMT 37.502426 -122.223190 3,250 25 180 -1472
2022-11-28 01:03:13 GMT 37.501041 -122.224098 3,300 25 179 -1472
2022-11-28 01:03:10 GMT 37.499451 -122.225006 3,350 25 179 -1408
2022-11-28 01:03:08 GMT 37.496803 -122.226601 3,450 25 178 -1472
2022-11-28 01:03:05 GMT 37.495174 -122.227554 3,500 25 178 -1344
2022-11-28 01:03:02 GMT 37.493034 -122.228813 3,550 24 179 -1280
2022-11-28 01:02:58 GMT 37.489655 -122.230728 3,675 24 178 -1216
2022-11-28 01:02:55 GMT 37.488518 -122.231377 3,675 24 178 -1216
2022-11-28 01:02:53 GMT 37.487026 -122.232277 3,700 25 178 -1152
2022-11-28 01:02:50 GMT 37.484711 -122.233650 3,775 25 178 -1088
2022-11-28 01:02:48 GMT 37.482838 -122.234779 3,800 26 178 -960
2022-11-28 01:02:47 GMT 37.482094 -122.235260 3,825 27 178 -768
2022-11-28 01:02:46 GMT 37.481346 -122.235680 3,825 28 178 -640
2022-11-28 01:02:45 GMT 37.480591 -122.236221 3,850 29 178 -576
2022-11-28 01:02:43 GMT 37.478989 -122.237396 3,850 33 179 -512
2022-11-28 01:02:42 GMT 37.478302 -122.237923 3,875 35 179 -512
2022-11-28 01:02:41 GMT 37.477112 -122.238960 3,875 40 180 -320
2022-11-28 01:02:39 GMT 37.476425 -122.239670 3,875 46 181 -128
2022-11-28 01:02:38 GMT 37.475159 -122.241234 3,875 48 182 -64
2022-11-28 01:02:36 GMT 37.474598 -122.242004 3,875 51 183 -64
2022-11-28 01:02:34 GMT 37.474037 -122.242844 3,875 54 183 -64
2022-11-28 01:02:32 GMT 37.472076 -122.246979 3,875 66 185 0
2022-11-28 01:02:30 GMT 37.472076 -122.246979 3,875 68 186 0
2022-11-28 01:02:29 GMT 37.471756 -122.247971 3,875 74 187 0
2022-11-28 01:02:27 GMT 37.470840 -122.251480 3,875 77 188 0
2022-11-28 01:02:26 GMT 37.470840 -122.251480 3,875 83 189 0
2022-11-28 01:02:25 GMT 37.470703 -122.252525 3,875 85 190 0
2022-11-28 01:02:22 GMT 37.470428 -122.255859 3,875 91 191 0
2022-11-28 01:02:21 GMT 37.470474 -122.257378 3,900 95 192 -64
2022-11-28 01:02:19 GMT 37.470547 -122.259087 3,900 101 193 -64
2022-11-28 01:02:17 GMT 37.470749 -122.260712 3,900 101 193 -64
2022-11-28 01:02:16 GMT 37.470886 -122.261818 3,900 102 193 -64
2022-11-28 01:02:14 GMT 37.471344 -122.264511 3,900 104 194 -64
2022-11-28 01:02:12 GMT 37.471710 -122.266365 3,900 104 194 -64
2022-11-28 01:02:11 GMT 37.471985 -122.267548 3,900 104 194 -64
2022-11-28 01:02:10 GMT 37.472443 -122.269768 3,900 104 195 -64
2022-11-28 01:02:08 GMT 37.472691 -122.270966 3,900 104 195 -64
2022-11-28 01:02:07 GMT 37.473015 -122.272461 3,900 105 195 -64
2022-11-28 01:02:06 GMT 37.473248 -122.273590 3,900 105 195 -64
2022-11-28 01:02:05 GMT 37.473770 -122.275902 3,900 105 196 0
2022-11-28 01:02:02 GMT 37.474136 -122.277657 3,900 104 197 128
2022-11-28 01:02:01 GMT 37.474228 -122.278191 3,900 105 197 128
2022-11-28 01:02:00 GMT 37.475052 -122.281860 3,900 105 198 64
2022-11-28 01:01:58 GMT 37.475052 -122.281860 3,900 105 199 128
2022-11-28 01:01:56 GMT 37.475807 -122.285355 3,900 105 198 0
2022-11-28 01:01:54 GMT 37.476059 -122.286537 3,900 105 198 0
2022-11-28 01:01:53 GMT 37.476334 -122.287651 3,900 105 198 0
2022-11-28 01:01:51 GMT 37.476883 -122.290337 3,900 105 198 0
2022-11-28 01:01:50 GMT 37.477158 -122.291451 3,900 105 198 0
2022-11-28 01:01:49 GMT 37.477345 -122.292458 3,900 104 198 0
2022-11-28 01:01:45 GMT 37.478119 -122.296120 3,900 104 198 0
2022-11-28 01:01:44 GMT 37.478622 -122.298347 3,900 104 198 0
2022-11-28 01:01:42 GMT 37.478851 -122.299454 3,900 105 198 64
2022-11-28 01:01:41 GMT 37.479034 -122.300392 3,900 105 198 64
2022-11-28 01:01:40 GMT 37.479671 -122.303391 3,900 105 199 0
2022-11-28 01:01:38 GMT 37.479904 -122.304359 3,900 105 199 0
2022-11-28 01:01:37 GMT 37.480225 -122.305939 3,900 105 199 64
2022-11-28 01:01:36 GMT 37.480465 -122.306969 3,900 105 199 0
2022-11-28 01:01:34 GMT 37.481003 -122.309273 3,875 105 199 64
2022-11-28 01:01:33 GMT 37.481209 -122.310310 3,875 105 199 64
2022-11-28 01:01:30 GMT 37.481998 -122.313896 3,875 105 200 64
2022-11-28 01:01:28 GMT 37.482788 -122.317337 3,875 105 201 64
2022-11-28 01:01:25 GMT 37.483017 -122.318504 3,875 105 202 0
2022-11-28 01:01:24 GMT 37.483566 -122.320961 3,875 105 203 0
2022-11-28 01:01:22 GMT 37.483841 -122.322128 3,875 105 203 0
2022-11-28 01:01:21 GMT 37.483978 -122.322769 3,875 105 204 0
2022-11-28 01:01:20 GMT 37.484375 -122.324524 3,875 105 204 0
2022-11-28 01:01:18 GMT 37.485443 -122.329201 3,875 105 206 0
2022-11-28 01:01:16 GMT 37.485443 -122.329201 3,875 105 206 0
2022-11-28 01:01:15 GMT 37.485947 -122.331535 3,875 105 207 -64
2022-11-28 01:01:13 GMT 37.486191 -122.332588 3,875 105 208 0
2022-11-28 01:01:12 GMT 37.486794 -122.335388 3,875 105 209 -64
2022-11-28 01:01:11 GMT 37.487045 -122.336449 3,900 105 209 -64
2022-11-28 01:01:09 GMT 37.487309 -122.337479 3,900 105 210 -128
2022-11-28 01:01:08 GMT 37.487541 -122.338676 3,900 105 213 0
2022-11-28 01:01:05 GMT 37.488190 -122.341644 3,900 105 213 0
2022-11-28 01:01:04 GMT 37.488556 -122.343285 3,900 105 213 0
2022-11-28 01:01:01 GMT 37.489590 -122.347694 3,900 105 215 64
2022-11-28 01:00:59 GMT 37.489975 -122.349533 3,875 106 216 64
2022-11-28 01:00:57 GMT 37.490433 -122.351463 3,875 106 217 64
2022-11-28 01:00:56 GMT 37.490799 -122.353004 3,875 106 217 64
2022-11-28 01:00:55 GMT 37.490936 -122.353783 3,875 106 217 64
2022-11-28 01:00:53 GMT 37.491531 -122.356316 3,875 106 218 64
2022-11-28 01:00:52 GMT 37.491871 -122.357658 3,875 106 218 64
2022-11-28 01:00:50 GMT 37.492584 -122.360695 3,875 106 219 64
2022-11-28 01:00:49 GMT 37.492893 -122.362083 3,875 106 219 64
2022-11-28 01:00:47 GMT 37.493225 -122.363441 3,875 106 221 64
2022-11-28 01:00:46 GMT 37.493866 -122.366135 3,875 106 222 0
2022-11-28 01:00:44 GMT 37.494102 -122.367271 3,875 106 222 0
2022-11-28 01:00:42 GMT 37.494709 -122.369720 3,875 106 222 0
2022-11-28 01:00:40 GMT 37.495266 -122.372169 3,875 106 223 -64
2022-11-28 01:00:39 GMT 37.495731 -122.374199 3,875 106 223 -64
2022-11-28 01:00:37 GMT 37.496201 -122.376068 3,875 106 223 -64
2022-11-28 01:00:36 GMT 37.497082 -122.379692 3,875 106 224 -64
2022-11-28 01:00:33 GMT 37.497501 -122.381424 3,875 107 224 0
2022-11-28 01:00:32 GMT 37.497829 -122.382683 3,875 107 224 0
2022-11-28 01:00:30 GMT 37.498444 -122.385300 3,875 107 224 0
2022-11-28 01:00:29 GMT 37.498619 -122.385902 3,875 107 224 0
2022-11-28 01:00:27 GMT 37.499691 -122.390442 3,875 106 225 0
2022-11-28 01:00:24 GMT 37.500294 -122.392952 3,875 106 225 0
2022-11-28 01:00:22 GMT 37.500961 -122.395584 3,875 106 225 0
2022-11-28 01:00:21 GMT 37.501270 -122.396950 3,875 106 225 0
2022-11-28 01:00:19 GMT 37.501877 -122.399323 3,875 106 226 0
2022-11-28 01:00:17 GMT 37.502342 -122.401253 3,875 106 226 0
2022-11-28 01:00:14 GMT 37.503067 -122.404411 3,875 106 226 0
2022-11-28 01:00:13 GMT 37.503525 -122.406158 3,875 106 227 0
2022-11-28 01:00:12 GMT 37.503799 -122.407448 3,875 106 227 0
2022-11-28 01:00:10 GMT 37.504669 -122.411102 3,875 106 227 0
2022-11-28 01:00:07 GMT 37.505367 -122.413910 3,875 106 226 0
2022-11-28 01:00:04 GMT 37.506317 -122.418083 3,875 105 226 -64
2022-11-28 01:00:03 GMT 37.506638 -122.419373 3,875 105 227 -64
2022-11-28 01:00:00 GMT 37.507465 -122.423042 3,875 104 227 0
2022-11-28 00:59:59 GMT 37.507599 -122.423691 3,875 104 227 0
2022-11-28 00:59:57 GMT 37.508102 -122.426208 3,875 102 226 0
2022-11-28 00:59:55 GMT 37.508579 -122.428658 3,875 100 225 64
2022-11-28 00:59:53 GMT 37.508953 -122.430984 3,875 97 226 128
2022-11-28 00:59:50 GMT 37.509418 -122.435165 3,875 93 226 64
2022-11-28 00:59:49 GMT 37.509464 -122.436478 3,875 88 225 0
2022-11-28 00:59:47 GMT 37.509476 -122.438713 3,875 85 225 0
2022-11-28 00:59:46 GMT 37.509384 -122.440521 3,875 83 225 0
2022-11-28 00:59:44 GMT 37.509094 -122.443222 3,875 76 224 0
2022-11-28 00:59:42 GMT 37.508606 -122.445900 3,875 71 223 0
2022-11-28 00:59:41 GMT 37.508347 -122.447044 3,875 68 224 -64
2022-11-28 00:59:40 GMT 37.507004 -122.451279 3,875 64 223 -64
2022-11-28 00:59:38 GMT 37.507004 -122.451279 3,875 61 222 -64
2022-11-28 00:59:37 GMT 37.506409 -122.452675 3,900 59 222 -128
2022-11-28 00:59:36 GMT 37.504669 -122.456001 3,900 51 221 -192
2022-11-28 00:59:34 GMT 37.504669 -122.456001 3,900 51 221 -192
2022-11-28 00:59:32 GMT 37.503342 -122.458115 3,900 47 220 -192
2022-11-28 00:59:30 GMT 37.502296 -122.459526 3,900 43 220 -128
2022-11-28 00:59:29 GMT 37.499954 -122.462204 3,900 40 219 0
2022-11-28 00:59:27 GMT 37.499954 -122.462204 3,900 39 219 0
2022-11-28 00:59:26 GMT 37.499271 -122.462929 3,875 38 219 0
2022-11-28 00:59:25 GMT 37.497437 -122.464775 3,875 37 218 64
2022-11-28 00:59:23 GMT 37.496613 -122.465538 3,875 37 219 0
2022-11-28 00:59:22 GMT 37.495731 -122.466393 3,875 37 219 0
2022-11-28 00:59:19 GMT 37.493313 -122.468719 3,875 37 219 0
2022-11-28 00:59:16 GMT 37.490982 -122.470970 3,875 37 219 0
2022-11-28 00:59:13 GMT 37.488693 -122.473129 3,875 37 219 0
2022-11-28 00:59:11 GMT 37.487820 -122.473976 3,875 37 219 0
2022-11-28 00:59:09 GMT 37.485306 -122.476349 3,875 37 219 0
2022-11-28 00:59:06 GMT 37.483337 -122.478218 3,875 36 219 0
2022-11-28 00:59:04 GMT 37.481735 -122.479736 3,875 36 218 -64
2022-11-28 00:59:03 GMT 37.479767 -122.481544 3,875 36 219 -64
2022-11-28 00:59:00 GMT 37.478119 -122.483063 3,900 35 218 -64
2022-11-28 00:58:58 GMT 37.476471 -122.484528 3,900 34 218 -64
2022-11-28 00:58:56 GMT 37.475204 -122.485619 3,900 32 218 0
2022-11-28 00:58:55 GMT 37.474365 -122.486336 3,900 31 218 0
2022-11-28 00:58:52 GMT 37.471710 -122.488380 3,900 27 217 0
2022-11-28 00:58:51 GMT 37.470036 -122.489494 3,900 22 217 0
2022-11-28 00:58:48 GMT 37.468174 -122.490517 3,900 17 217 0
2022-11-28 00:58:47 GMT 37.466080 -122.491409 3,900 12 217 0
2022-11-28 00:58:45 GMT 37.465210 -122.491714 3,900 12 217 0
2022-11-28 00:58:43 GMT 37.463520 -122.492126 3,900 7 217 0
2022-11-28 00:58:42 GMT 37.461887 -122.492424 3,900 2 217 64
2022-11-28 00:58:41 GMT 37.460999 -122.492531 3,900 359 217 64
2022-11-28 00:58:38 GMT 37.458492 -122.492485 3,900 354 217 64
2022-11-28 00:58:37 GMT 37.456970 -122.492355 3,900 351 217 64
2022-11-28 00:58:35 GMT 37.454773 -122.491890 3,900 341 217 64
2022-11-28 00:58:33 GMT 37.452850 -122.491302 3,875 341 217 64
2022-11-28 00:58:31 GMT 37.450928 -122.490433 3,875 337 218 64
2022-11-28 00:58:30 GMT 37.449879 -122.489914 3,875 334 218 64
2022-11-28 00:58:26 GMT 37.446854 -122.487823 3,875 324 220 64
2022-11-28 00:58:25 GMT 37.446342 -122.487411 3,875 322 220 0
2022-11-28 00:58:24 GMT 37.443832 -122.484993 3,875 320 221 0
2022-11-28 00:58:22 GMT 37.443832 -122.484993 3,875 315 221 -64
2022-11-28 00:58:21 GMT 37.442368 -122.483185 3,875 313 221 -128
2022-11-28 00:58:19 GMT 37.441681 -122.482246 3,875 311 221 -64
2022-11-28 00:58:17 GMT 37.440125 -122.479851 3,875 306 221 0
2022-11-28 00:58:15 GMT 37.438934 -122.477745 3,875 304 222 0
2022-11-28 00:58:13 GMT 37.437122 -122.474449 3,875 304 222 0
2022-11-28 00:58:11 GMT 37.436600 -122.473480 3,875 304 222 0
2022-11-28 00:58:10 GMT 37.435455 -122.471321 3,875 304 222 0
2022-11-28 00:58:07 GMT 37.434052 -122.468658 3,875 304 222 0
2022-11-28 00:58:06 GMT 37.433533 -122.467636 3,875 304 222 0
2022-11-28 00:58:05 GMT 37.432468 -122.465614 3,875 304 222 0
2022-11-28 00:58:02 GMT 37.431442 -122.463707 3,875 304 222 0
2022-11-28 00:58:00 GMT 37.430237 -122.461441 3,875 304 222 0
2022-11-28 00:57:59 GMT 37.429398 -122.459824 3,875 304 222 0
2022-11-28 00:57:57 GMT 37.428406 -122.457993 3,875 304 222 0
2022-11-28 00:57:55 GMT 37.427299 -122.455940 3,875 304 222 0
2022-11-28 00:57:54 GMT 37.426666 -122.454727 3,875 304 222 0
2022-11-28 00:57:53 GMT 37.426117 -122.453674 3,875 304 222 0
2022-11-28 00:57:52 GMT 37.424973 -122.451508 3,875 304 222 0
2022-11-28 00:57:49 GMT 37.423904 -122.449493 3,875 304 222 0
2022-11-28 00:57:48 GMT 37.423599 -122.448936 3,875 304 222 0
2022-11-28 00:57:46 GMT 37.422413 -122.446686 3,875 304 222 0
2022-11-28 00:57:45 GMT 37.421806 -122.445610 3,875 304 222 0
2022-11-28 00:57:44 GMT 37.420990 -122.443970 3,875 304 222 0
2022-11-28 00:57:43 GMT 37.420395 -122.442917 3,875 304 222 0
2022-11-28 00:57:42 GMT 37.419708 -122.441635 3,875 304 222 0
2022-11-28 00:57:39 GMT 37.418179 -122.438683 3,875 304 222 0
2022-11-28 00:57:38 GMT 37.416779 -122.436119 3,875 304 222 0
2022-11-28 00:57:35 GMT 37.416126 -122.434807 3,875 304 222 0
2022-11-28 00:57:33 GMT 37.413528 -122.430000 3,875 304 222 0
2022-11-28 00:57:31 GMT 37.413528 -122.430000 3,875 304 222 0
2022-11-28 00:57:30 GMT 37.412914 -122.428833 3,875 304 222 0
2022-11-28 00:57:28 GMT 37.411697 -122.426559 3,875 304 222 -64
2022-11-28 00:57:25 GMT 37.410324 -122.423988 3,875 304 222 0
2022-11-28 00:57:24 GMT 37.409702 -122.422806 3,875 304 222 0
2022-11-28 00:57:22 GMT 37.408264 -122.420128 3,875 304 222 0
2022-11-28 00:57:21 GMT 37.407715 -122.419022 3,875 304 222 0
2022-11-28 00:57:19 GMT 37.407120 -122.417969 3,875 304 222 0
2022-11-28 00:57:18 GMT 37.406258 -122.416351 3,875 304 222 0
2022-11-28 00:57:16 GMT 37.405197 -122.414345 3,875 304 222 0
2022-11-28 00:57:14 GMT 37.404282 -122.412590 3,875 304 221 0
2022-11-28 00:57:13 GMT 37.403275 -122.410660 3,875 304 221 0
2022-11-28 00:57:11 GMT 37.402130 -122.408562 3,875 304 220 0
2022-11-28 00:57:09 GMT 37.401512 -122.407341 3,875 304 220 0
2022-11-28 00:57:07 GMT 37.400162 -122.404770 3,875 304 220 0
2022-11-28 00:57:05 GMT 37.398376 -122.401489 3,875 304 220 0
2022-11-28 00:57:03 GMT 37.397827 -122.400375 3,875 304 221 0
2022-11-28 00:57:01 GMT 37.396683 -122.398270 3,875 304 221 0
2022-11-28 00:57:00 GMT 37.395271 -122.395576 3,875 304 221 0
2022-11-28 00:56:57 GMT 37.394119 -122.393303 3,875 304 221 0
2022-11-28 00:56:56 GMT 37.393524 -122.392197 3,875 303 221 0
2022-11-28 00:56:55 GMT 37.393040 -122.391281 3,875 303 221 0
2022-11-28 00:56:54 GMT 37.392426 -122.390091 3,875 303 221 0
2022-11-28 00:56:53 GMT 37.390152 -122.385666 3,875 303 221 0
2022-11-28 00:56:50 GMT 37.389595 -122.384590 3,875 303 221 0
2022-11-28 00:56:48 GMT 37.388802 -122.383041 3,875 303 220 0
2022-11-28 00:56:46 GMT 37.388477 -122.382378 3,875 303 220 0
2022-11-28 00:56:44 GMT 37.386612 -122.378578 3,875 300 221 0
2022-11-28 00:56:42 GMT 37.386150 -122.377602 3,875 300 220 0
2022-11-28 00:56:41 GMT 37.385635 -122.376472 3,875 299 221 64
2022-11-28 00:56:39 GMT 37.384598 -122.374077 3,875 295 221 64
2022-11-28 00:56:38 GMT 37.383961 -122.372353 3,875 293 221 0
2022-11-28 00:56:34 GMT 37.382812 -122.368645 3,875 284 222 0
2022-11-28 00:56:32 GMT 37.381989 -122.364380 3,875 277 222 0
2022-11-28 00:56:29 GMT 37.381805 -122.362564 3,875 275 222 0
2022-11-28 00:56:28 GMT 37.381668 -122.360519 3,875 270 222 0
2022-11-28 00:56:26 GMT 37.381725 -122.357780 3,875 265 223 0
2022-11-28 00:56:25 GMT 37.381851 -122.355850 3,875 263 223 0
2022-11-28 00:56:24 GMT 37.381989 -122.354561 3,875 258 223 0
2022-11-28 00:56:20 GMT 37.384003 -122.346382 3,875 243 224 64
2022-11-28 00:56:17 GMT 37.384705 -122.344643 3,875 243 224 64
2022-11-28 00:56:15 GMT 37.384705 -122.344643 3,875 241 224 64
2022-11-28 00:56:13 GMT 37.385777 -122.342438 3,875 234 225 0
2022-11-28 00:56:12 GMT 37.386292 -122.341469 3,875 231 225 0
2022-11-28 00:56:10 GMT 37.387848 -122.338959 3,875 226 225 -128
2022-11-28 00:56:08 GMT 37.389221 -122.337181 3,875 222 225 -128
2022-11-28 00:56:07 GMT 37.390091 -122.336212 3,875 218 226 -64
2022-11-28 00:56:06 GMT 37.392620 -122.333656 3,875 217 226 -64
2022-11-28 00:56:02 GMT 37.393784 -122.332588 3,875 215 226 0
2022-11-28 00:55:59 GMT 37.396252 -122.330498 3,875 214 226 0
2022-11-28 00:55:57 GMT 37.398346 -122.328766 3,875 214 226 0
2022-11-28 00:55:56 GMT 37.399155 -122.328148 3,875 213 226 0
2022-11-28 00:55:55 GMT 37.400440 -122.327087 3,875 213 226 0
2022-11-28 00:55:54 GMT 37.401260 -122.326454 3,875 214 225 0
2022-11-28 00:55:52 GMT 37.402908 -122.325058 3,875 214 225 0
2022-11-28 00:55:51 GMT 37.403793 -122.324348 3,875 214 225 0
2022-11-28 00:55:49 GMT 37.405888 -122.322617 3,875 214 225 0
2022-11-28 00:55:48 GMT 37.406773 -122.321899 3,875 214 225 0
2022-11-28 00:55:46 GMT 37.408447 -122.320549 3,875 214 225 0
2022-11-28 00:55:44 GMT 37.410370 -122.318970 3,875 214 225 0
2022-11-28 00:55:43 GMT 37.411423 -122.318153 3,875 214 225 0
2022-11-28 00:55:41 GMT 37.412659 -122.317162 3,875 213 224 0
2022-11-28 00:55:39 GMT 37.414032 -122.315994 3,875 213 224 0
2022-11-28 00:55:37 GMT 37.415897 -122.314491 3,875 213 224 0
2022-11-28 00:55:35 GMT 37.418060 -122.312721 3,875 213 224 0
2022-11-28 00:55:32 GMT 37.420349 -122.310905 3,875 213 224 0
2022-11-28 00:55:31 GMT 37.421768 -122.309799 3,875 213 225 0
2022-11-28 00:55:30 GMT 37.423622 -122.308342 3,875 213 225 0
2022-11-28 00:55:28 GMT 37.424377 -122.307693 3,875 213 224 0
2022-11-28 00:55:25 GMT 37.426231 -122.306190 3,875 213 224 0
2022-11-28 00:55:24 GMT 37.428371 -122.304581 3,875 212 223 0
2022-11-28 00:55:22 GMT 37.429321 -122.303780 3,875 212 223 0
2022-11-28 00:55:21 GMT 37.430141 -122.303207 3,875 211 224 0
2022-11-28 00:55:19 GMT 37.431911 -122.301834 3,875 210 224 0
2022-11-28 00:55:18 GMT 37.432842 -122.301239 3,875 209 224 0
2022-11-28 00:55:15 GMT 37.435215 -122.299568 3,875 207 224 0
2022-11-28 00:55:14 GMT 37.438522 -122.297646 3,875 199 225 0
2022-11-28 00:55:12 GMT 37.438522 -122.297646 3,875 199 225 0
2022-11-28 00:55:10 GMT 37.441498 -122.296471 3,875 192 226 0
2022-11-28 00:55:08 GMT 37.442505 -122.296181 3,875 190 227 -64
2022-11-28 00:55:06 GMT 37.444565 -122.295715 3,875 187 226 0
2022-11-28 00:55:05 GMT 37.445618 -122.295593 3,875 179 227 -64
2022-11-28 00:55:04 GMT 37.447083 -122.295479 3,875 179 227 -64
2022-11-28 00:55:02 GMT 37.449085 -122.295509 3,875 174 227 -64
2022-11-28 00:54:59 GMT 37.451183 -122.295746 3,875 170 228 -64
2022-11-28 00:54:58 GMT 37.452671 -122.296104 3,875 167 228 0
2022-11-28 00:54:57 GMT 37.453697 -122.296341 3,875 165 228 0
2022-11-28 00:54:56 GMT 37.455826 -122.297119 3,875 160 228 0
2022-11-28 00:54:54 GMT 37.456955 -122.297592 3,875 153 229 64
2022-11-28 00:54:53 GMT 37.459763 -122.299217 3,875 153 229 64
2022-11-28 00:54:51 GMT 37.459763 -122.299217 3,875 149 229 64
2022-11-28 00:54:50 GMT 37.460678 -122.299866 3,875 147 229 64
2022-11-28 00:54:49 GMT 37.463013 -122.301735 3,875 142 231 64
2022-11-28 00:54:46 GMT 37.464451 -122.303085 3,875 137 231 0
2022-11-28 00:54:44 GMT 37.467728 -122.307228 3,875 130 231 -64
2022-11-28 00:54:39 GMT 37.469376 -122.309975 3,875 121 231 -128
2022-11-28 00:54:37 GMT 37.470291 -122.311844 3,875 120 231 -64
2022-11-28 00:54:36 GMT 37.471252 -122.313950 3,875 117 230 0
2022-11-28 00:54:34 GMT 37.471939 -122.315582 3,875 115 230 0
2022-11-28 00:54:33 GMT 37.472828 -122.317894 3,875 115 231 0
2022-11-28 00:54:31 GMT 37.473495 -122.319733 3,875 115 230 0
2022-11-28 00:54:30 GMT 37.473946 -122.320824 3,875 115 230 0
2022-11-28 00:54:29 GMT 37.474411 -122.322128 3,875 115 230 0
2022-11-28 00:54:27 GMT 37.475388 -122.324699 3,875 114 230 0
2022-11-28 00:54:26 GMT 37.475876 -122.326042 3,875 114 230 0
2022-11-28 00:54:25 GMT 37.476334 -122.327271 3,875 114 230 0
2022-11-28 00:54:21 GMT 37.477810 -122.331268 3,875 114 230 0
2022-11-28 00:54:20 GMT 37.478508 -122.333183 3,875 115 229 0
2022-11-28 00:54:19 GMT 37.478786 -122.333961 3,875 115 229 0
2022-11-28 00:54:18 GMT 37.479813 -122.336739 3,875 115 229 0
2022-11-28 00:54:16 GMT 37.480270 -122.337906 3,875 115 229 -64
2022-11-28 00:54:15 GMT 37.480789 -122.339272 3,875 115 229 -64
2022-11-28 00:54:13 GMT 37.481300 -122.340706 3,875 115 229 -64
2022-11-28 00:54:11 GMT 37.482788 -122.344688 3,875 115 229 0
2022-11-28 00:54:10 GMT 37.483582 -122.346733 3,875 115 229 0
2022-11-28 00:54:07 GMT 37.483978 -122.347839 3,900 115 229 0
2022-11-28 00:54:05 GMT 37.485031 -122.350761 3,900 115 228 0
2022-11-28 00:54:04 GMT 37.485489 -122.351929 3,900 115 228 0
2022-11-28 00:54:03 GMT 37.486095 -122.353539 3,900 115 228 0
2022-11-28 00:54:01 GMT 37.487259 -122.356644 3,900 114 228 0
2022-11-28 00:53:58 GMT 37.487865 -122.358322 3,875 114 228 0
2022-11-28 00:53:57 GMT 37.488373 -122.359642 3,875 114 228 64
2022-11-28 00:53:55 GMT 37.489334 -122.362335 3,875 114 228 64
2022-11-28 00:53:54 GMT 37.490005 -122.364113 3,875 114 228 0
2022-11-28 00:53:52 GMT 37.491119 -122.367126 3,875 115 228 0
2022-11-28 00:53:49 GMT 37.492126 -122.369812 3,875 115 228 0
2022-11-28 00:53:47 GMT 37.492939 -122.372055 3,875 115 228 0
2022-11-28 00:53:46 GMT 37.493404 -122.373245 3,875 115 227 0
2022-11-28 00:53:44 GMT 37.494568 -122.376411 3,875 115 228 0
2022-11-28 00:53:43 GMT 37.495033 -122.377602 3,875 115 228 0
2022-11-28 00:53:41 GMT 37.495880 -122.379868 3,875 115 228 0
2022-11-28 00:53:38 GMT 37.497223 -122.383339 3,875 115 228 64
2022-11-28 00:53:36 GMT 37.497921 -122.385246 3,875 115 228 64
2022-11-28 00:53:35 GMT 37.498444 -122.386581 3,875 115 228 64
2022-11-28 00:53:32 GMT 37.499828 -122.390266 3,875 115 228 0
2022-11-28 00:53:30 GMT 37.501373 -122.394241 3,875 115 228 0
2022-11-28 00:53:27 GMT 37.502251 -122.396530 3,875 115 228 0
2022-11-28 00:53:24 GMT 37.503601 -122.400116 3,875 115 228 0
2022-11-28 00:53:21 GMT 37.504852 -122.403358 3,875 115 228 0
2022-11-28 00:53:20 GMT 37.505508 -122.405128 3,875 115 228 0
2022-11-28 00:53:18 GMT 37.506638 -122.408089 3,875 115 227 0
2022-11-28 00:53:15 GMT 37.507881 -122.411339 3,875 113 227 0
2022-11-28 00:53:12 GMT 37.508999 -122.414505 3,875 113 227 0
2022-11-28 00:53:10 GMT 37.509373 -122.415756 3,875 112 227 64
2022-11-28 00:53:09 GMT 37.510620 -122.419540 3,875 107 228 64
2022-11-28 00:53:06 GMT 37.511307 -122.422348 3,875 103 227 0
2022-11-28 00:53:04 GMT 37.511791 -122.424774 3,875 99 226 -64
2022-11-28 00:53:03 GMT 37.511978 -122.426086 3,875 94 226 -64
2022-11-28 00:53:00 GMT 37.512260 -122.429733 3,875 92 226 0
2022-11-28 00:52:58 GMT 37.512260 -122.433136 3,875 87 226 -64
2022-11-28 00:52:57 GMT 37.512260 -122.433136 3,875 85 225 -64
2022-11-28 00:52:54 GMT 37.511887 -122.437073 3,875 78 224 0
2022-11-28 00:52:53 GMT 37.511700 -122.438332 3,875 75 223 -64
2022-11-28 00:52:52 GMT 37.511280 -122.440361 3,875 66 222 0
2022-11-28 00:52:50 GMT 37.510628 -122.442802 3,875 66 222 0
2022-11-28 00:52:47 GMT 37.509277 -122.446327 3,875 61 222 64
2022-11-28 00:52:45 GMT 37.508255 -122.448540 3,875 54 221 64
2022-11-28 00:52:44 GMT 37.507599 -122.449699 3,875 49 220 64
2022-11-28 00:52:43 GMT 37.506252 -122.451820 3,875 44 220 64
2022-11-28 00:52:40 GMT 37.505135 -122.453316 3,875 44 220 64
2022-11-28 00:52:39 GMT 37.504112 -122.454567 3,875 39 220 64
2022-11-28 00:52:37 GMT 37.503250 -122.455482 3,875 37 219 64
2022-11-28 00:52:36 GMT 37.502342 -122.456299 3,875 34 218 0
2022-11-28 00:52:34 GMT 37.500668 -122.457733 3,875 27 218 -64
2022-11-28 00:52:32 GMT 37.498627 -122.459106 3,875 25 218 -64
2022-11-28 00:52:30 GMT 37.496750 -122.460159 3,875 21 217 -64
2022-11-28 00:52:28 GMT 37.493824 -122.461433 3,875 18 218 0
2022-11-28 00:52:27 GMT 37.493824 -122.461433 3,875 17 217 0
2022-11-28 00:52:26 GMT 37.492847 -122.461853 3,875 16 217 0
2022-11-28 00:52:24 GMT 37.490433 -122.462730 3,875 16 217 0
2022-11-28 00:52:22 GMT 37.488693 -122.463371 3,875 16 218 0
2022-11-28 00:52:19 GMT 37.484436 -122.464951 3,875 16 217 0
2022-11-28 00:52:17 GMT 37.484436 -122.464951 3,875 16 217 0
2022-11-28 00:52:16 GMT 37.483841 -122.465187 3,875 16 216 0
2022-11-28 00:52:14 GMT 37.480774 -122.466293 3,875 16 216 0
2022-11-28 00:52:12 GMT 37.479534 -122.466751 3,875 16 216 0
2022-11-28 00:52:11 GMT 37.478554 -122.467110 3,875 16 216 0
2022-11-28 00:52:10 GMT 37.476700 -122.467812 3,875 16 216 0
2022-11-28 00:52:07 GMT 37.472672 -122.469276 3,875 16 216 0
2022-11-28 00:52:05 GMT 37.472672 -122.469276 3,875 15 216 0
2022-11-28 00:52:03 GMT 37.470337 -122.470093 3,875 15 216 0
2022-11-28 00:52:01 GMT 37.468414 -122.470795 3,875 15 216 0
2022-11-28 00:51:59 GMT 37.467335 -122.471169 3,875 15 216 0
2022-11-28 00:51:58 GMT 37.466263 -122.471558 3,875 15 216 0
2022-11-28 00:51:57 GMT 37.464451 -122.472183 3,875 15 216 0
2022-11-28 00:51:55 GMT 37.463379 -122.472549 3,875 15 216 0
2022-11-28 00:51:54 GMT 37.462307 -122.472900 3,875 15 216 0
2022-11-28 00:51:52 GMT 37.460400 -122.473618 3,875 15 216 0
2022-11-28 00:51:46 GMT 37.453789 -122.475822 3,900 13 215 -64
2022-11-28 00:51:43 GMT 37.451202 -122.476639 3,900 12 215 0
2022-11-28 00:51:41 GMT 37.448948 -122.477257 3,900 11 215 0
2022-11-28 00:51:34 GMT 37.441032 -122.478271 3,875 356 214 0
2022-11-28 00:51:31 GMT 37.439941 -122.478157 3,875 346 215 0
2022-11-28 00:51:26 GMT 37.434238 -122.476540 3,900 338 214 0
2022-11-28 00:51:23 GMT 37.431427 -122.474945 3,875 331 215 64
2022-11-28 00:51:15 GMT 37.425949 -122.470032 3,875 307 219 64
2022-11-28 00:51:12 GMT 37.423370 -122.466354 3,875 307 219 64
2022-11-28 00:51:05 GMT 37.419983 -122.458168 3,875 288 221 -64
2022-11-28 00:51:02 GMT 37.419113 -122.454491 3,875 285 221 0
2022-11-28 00:50:54 GMT 37.417248 -122.444359 3,875 283 221 0
2022-11-28 00:50:51 GMT 37.416641 -122.441078 3,875 283 221 0
2022-11-28 00:50:44 GMT 37.415195 -122.432777 3,875 283 221 0
2022-11-28 00:50:41 GMT 37.414314 -122.427757 3,875 283 221 0
2022-11-28 00:50:37 GMT 37.412590 -122.417908 3,875 283 221 0
2022-11-28 00:50:32 GMT 37.412590 -122.417908 3,875 283 221 0
2022-11-28 00:50:29 GMT 37.410233 -122.404236 3,875 236 224 0
2022-11-28 00:50:22 GMT 37.410233 -122.404236 3,875 282 221 0
2022-11-28 00:50:19 GMT 37.409409 -122.399208 3,875 282 220 0
2022-11-28 00:50:09 GMT 37.407578 -122.388161 3,875 282 220 0
2022-11-28 00:50:01 GMT 37.406113 -122.378342 3,875 248 223 0
2022-11-28 00:49:58 GMT 37.405609 -122.374840 3,875 278 219 64
2022-11-28 00:49:55 GMT 37.405243 -122.370750 3,875 275 219 64
2022-11-28 00:49:51 GMT 37.405144 -122.364471 3,875 262 221 0
2022-11-28 00:49:48 GMT 37.405514 -122.361183 3,875 257 221 0
2022-11-28 00:49:42 GMT 37.407394 -122.353920 3,875 241 224 0
2022-11-28 00:49:38 GMT 37.409798 -122.348885 3,875 231 225 0
2022-11-28 00:49:35 GMT 37.411102 -122.346855 3,875 226 225 0
2022-11-28 00:49:30 GMT 37.416183 -122.341179 3,875 212 227 -64
2022-11-28 00:49:26 GMT 37.419201 -122.339096 3,875 202 227 -128
2022-11-28 00:49:19 GMT 37.426369 -122.336044 3,875 193 228 0
2022-11-28 00:49:15 GMT 37.429676 -122.335152 3,875 193 228 0
2022-11-28 00:49:11 GMT 37.434128 -122.333931 3,875 193 228 0
2022-11-28 00:49:07 GMT 37.438751 -122.332703 3,875 192 226 0
2022-11-28 00:49:04 GMT 37.440948 -122.332123 3,875 192 227 0
2022-11-28 00:49:01 GMT 37.444839 -122.331070 3,875 192 226 0
2022-11-28 00:48:56 GMT 37.449783 -122.329781 3,875 192 226 0
2022-11-28 00:48:53 GMT 37.452255 -122.329140 3,875 192 226 0
2022-11-28 00:48:48 GMT 37.458847 -122.327446 3,875 192 226 0
2022-11-28 00:48:44 GMT 37.462143 -122.326630 3,875 192 226 0
2022-11-28 00:48:42 GMT 37.463196 -122.326340 3,875 192 226 64
2022-11-28 00:48:40 GMT 37.466263 -122.325577 3,875 192 226 64
2022-11-28 00:48:36 GMT 37.473267 -122.323883 3,875 192 226 0
2022-11-28 00:48:33 GMT 37.473267 -122.323883 3,875 192 226 0
2022-11-28 00:48:29 GMT 37.476974 -122.322945 3,875 192 226 0
2022-11-28 00:48:25 GMT 37.481689 -122.321777 3,875 191 225 0
2022-11-28 00:48:22 GMT 37.484390 -122.321136 3,875 191 225 0
2022-11-28 00:48:18 GMT 37.488098 -122.320312 3,875 187 225 64
2022-11-28 00:48:15 GMT 37.492104 -122.319626 3,875 183 226 0
2022-11-28 00:48:11 GMT 37.495148 -122.319321 3,875 179 226 -64
2022-11-28 00:48:07 GMT 37.500294 -122.319809 3,875 155 229 -64
2022-11-28 00:48:04 GMT 37.502838 -122.320610 3,875 160 229 -64
2022-11-28 00:48:00 GMT 37.506409 -122.322243 3,875 153 229 -64
2022-11-28 00:47:57 GMT 37.509201 -122.324173 3,875 145 230 0
2022-11-28 00:47:54 GMT 37.512955 -122.327797 3,875 134 232 64
2022-11-28 00:47:51 GMT 37.514053 -122.329140 3,875 131 233 64
2022-11-28 00:47:48 GMT 37.516983 -122.333755 3,875 116 235 0
2022-11-28 00:47:43 GMT 37.519409 -122.339249 3,875 113 236 128
2022-11-28 00:47:40 GMT 37.520554 -122.342583 3,875 112 236 128
2022-11-28 00:47:38 GMT 37.521198 -122.344467 3,875 112 238 192
2022-11-28 00:47:35 GMT 37.522362 -122.348045 3,850 114 240 128
2022-11-28 00:47:33 GMT 37.523849 -122.352409 3,850 114 240 128
2022-11-28 00:47:29 GMT 37.525269 -122.356377 3,875 114 242 64
2022-11-28 00:47:27 GMT 37.526550 -122.359940 3,850 114 244 128
2022-11-28 00:47:24 GMT 37.527901 -122.363693 3,875 114 244 128
2022-11-28 00:47:21 GMT 37.529575 -122.368347 3,850 114 245 64
2022-11-28 00:47:16 GMT 37.531540 -122.373672 3,875 115 246 -128
2022-11-28 00:47:13 GMT 37.533279 -122.378342 3,875 115 248 -64
2022-11-28 00:47:10 GMT 37.534512 -122.381607 3,875 115 249 128
2022-11-28 00:47:07 GMT 37.536419 -122.386559 3,850 115 251 512
2022-11-28 00:47:04 GMT 37.537395 -122.389191 3,850 115 251 384
2022-11-28 00:47:00 GMT 37.539909 -122.395874 3,825 115 255 -512
2022-11-28 00:46:57 GMT 37.541168 -122.399101 3,950 115 256 -640
2022-11-28 00:46:53 GMT 37.543495 -122.405312 3,900 115 255 -704
2022-11-28 00:46:50 GMT 37.545078 -122.409309 3,925 116 255 -512
2022-11-28 00:46:47 GMT 37.548889 -122.419075 3,950 116 257 384
2022-11-28 00:46:42 GMT 37.548889 -122.419075 3,900 116 259 576
2022-11-28 00:46:39 GMT 37.550812 -122.423927 3,875 115 262 640
2022-11-28 00:46:35 GMT 37.552963 -122.429420 3,900 117 268 -128
2022-11-28 00:46:30 GMT 37.555481 -122.435791 3,875 116 266 -256
2022-11-28 00:46:27 GMT 37.556854 -122.439285 3,875 116 267 -192
2022-11-28 00:46:23 GMT 37.558811 -122.444000 3,900 117 269 -192
2022-11-28 00:46:21 GMT 37.560471 -122.448059 3,900 118 269 -256
2022-11-28 00:46:18 GMT 37.562534 -122.452896 3,925 119 270 -320
2022-11-28 00:46:14 GMT 37.565144 -122.458626 3,950 124 269 -640
2022-11-28 00:46:11 GMT 37.566864 -122.462090 3,975 123 269 -576
2022-11-28 00:46:07 GMT 37.569260 -122.466705 4,200 161 281 -320
2022-11-28 00:46:03 GMT 37.571983 -122.471344 4,050 128 269 -640
2022-11-28 00:46:00 GMT 37.575150 -122.476242 4,075 132 268 -192
2022-11-28 00:45:57 GMT 37.577545 -122.479614 4,075 133 269 -192
2022-11-28 00:45:51 GMT 37.582043 -122.485260 4,125 136 271 -448
2022-11-28 00:45:48 GMT 37.587254 -122.491226 4,150 139 272 -512
2022-11-28 00:45:45 GMT 37.587254 -122.491226 4,150 140 272 -512
2022-11-28 00:45:42 GMT 37.590134 -122.494171 4,175 143 274 -640
2022-11-28 00:45:39 GMT 37.594749 -122.498337 4,225 150 275 -448
2022-11-28 00:45:36 GMT 37.598145 -122.500832 4,250 152 276 -512
2022-11-28 00:45:32 GMT 37.602539 -122.503578 4,275 156 278 -320
2022-11-28 00:45:29 GMT 37.605968 -122.505440 4,300 158 279 -256
2022-11-28 00:45:25 GMT 37.610229 -122.507492 4,300 162 281 -320
2022-11-28 00:45:21 GMT 37.616631 -122.509857 4,350 166 283 -448
2022-11-28 00:45:16 GMT 37.621628 -122.511292 4,400 171 284 -576
2022-11-28 00:45:13 GMT 37.626682 -122.512367 4,450 172 283 -576
2022-11-28 00:45:09 GMT 37.630692 -122.513046 4,450 173 282 -640
2022-11-28 00:45:06 GMT 37.634857 -122.513687 4,475 173 281 -448
2022-11-28 00:45:03 GMT 37.638882 -122.514275 4,475 173 280 -320
2022-11-28 00:45:00 GMT 37.643211 -122.514992 4,475 173 279 384
2022-11-28 00:44:57 GMT 37.651173 -122.516190 4,450 172 279 256
2022-11-28 00:44:54 GMT 37.651173 -122.516190 4,450 172 279 320
2022-11-28 00:44:51 GMT 37.653732 -122.516663 4,425 171 278 576
2022-11-28 00:44:48 GMT 37.657471 -122.517311 4,425 171 278 576
2022-11-28 00:44:45 GMT 37.661461 -122.517982 4,375 171 280 448
2022-11-28 00:44:42 GMT 37.665508 -122.518753 4,350 170 279 512
2022-11-28 00:44:38 GMT 37.674362 -122.520584 4,325 171 279 64
2022-11-28 00:44:36 GMT 37.677567 -122.521202 4,325 171 279 64
2022-11-28 00:44:33 GMT 37.677567 -122.521202 4,325 173 279 384
2022-11-28 00:44:30 GMT 37.681149 -122.521797 4,300 177 280 576
2022-11-28 00:44:27 GMT 37.687901 -122.522453 4,250 232 271 576
2022-11-28 00:44:25 GMT 37.687901 -122.522453 4,250 181 281 384
2022-11-28 00:44:22 GMT 37.691017 -122.522453 4,250 183 281 256
2022-11-28 00:44:19 GMT 37.694931 -122.522217 4,250 186 282 64
2022-11-28 00:44:15 GMT 37.701004 -122.521172 4,250 195 279 -64
2022-11-28 00:44:12 GMT 37.704659 -122.520126 4,250 197 279 -128
2022-11-28 00:44:09 GMT 37.708511 -122.518768 4,250 199 278 -64
2022-11-28 00:44:04 GMT 37.713970 -122.516190 4,250 205 276 0
2022-11-28 00:44:01 GMT 37.718216 -122.513573 4,250 209 276 0
2022-11-28 00:43:58 GMT 37.720531 -122.511887 4,250 213 275 64
2022-11-28 00:43:55 GMT 37.724899 -122.508255 4,250 218 273 128
2022-11-28 00:43:52 GMT 37.727921 -122.505333 4,250 220 273 192
2022-11-28 00:43:49 GMT 37.729332 -122.503769 4,250 221 272 256
2022-11-28 00:43:46 GMT 37.732361 -122.500130 4,225 228 271 448
2022-11-28 00:43:43 GMT 37.735847 -122.495346 4,125 249 270 256
2022-11-28 00:43:40 GMT 37.738586 -122.491013 4,150 236 272 576
2022-11-28 00:43:37 GMT 37.739990 -122.488541 4,150 239 271 576
2022-11-28 00:43:34 GMT 37.741714 -122.485023 4,125 241 271 512
2022-11-28 00:43:32 GMT 37.743759 -122.480492 4,075 249 270 256
2022-11-28 00:43:29 GMT 37.745113 -122.476898 4,075 248 270 256
2022-11-28 00:43:25 GMT 37.746601 -122.472244 4,050 250 269 192
2022-11-28 00:43:22 GMT 37.748154 -122.466408 4,050 258 267 192
2022-11-28 00:43:19 GMT 37.748749 -122.463371 4,050 259 266 256
2022-11-28 00:43:16 GMT 37.749535 -122.458626 4,025 264 265 256
2022-11-28 00:43:12 GMT 37.750031 -122.453262 4,025 264 265 256
2022-11-28 00:43:10 GMT 37.750141 -122.448181 4,025 272 263 0
2022-11-28 00:43:07 GMT 37.749954 -122.443581 4,025 273 262 -64
2022-11-28 00:43:04 GMT 37.749630 -122.439644 4,025 280 259 64
2022-11-28 00:43:01 GMT 37.749069 -122.435616 4,025 286 257 256
2022-11-28 00:42:58 GMT 37.748199 -122.431526 4,000 288 257 320
2022-11-28 00:42:54 GMT 37.746277 -122.424599 3,975 295 256 640
2022-11-28 00:42:50 GMT 37.744087 -122.418625 3,925 300 256 640
2022-11-28 00:42:47 GMT 37.743256 -122.416618 3,900 301 256 640
2022-11-28 00:42:44 GMT 37.740875 -122.411636 3,875 307 256 576
2022-11-28 00:42:40 GMT 37.738037 -122.406631 3,825 311 256 128
2022-11-28 00:42:37 GMT 37.736526 -122.404289 3,825 312 255 64
2022-11-28 00:42:32 GMT 37.732132 -122.398094 3,825 315 253 192
2022-11-28 00:42:29 GMT 37.730484 -122.395996 3,800 315 251 192
2022-11-28 00:42:26 GMT 37.726677 -122.391220 3,800 316 249 64
2022-11-28 00:42:23 GMT 37.723755 -122.387520 3,800 316 248 0
2022-11-28 00:42:20 GMT 37.721512 -122.384827 3,775 317 244 256
2022-11-28 00:42:17 GMT 37.719231 -122.382080 3,775 317 242 384
2022-11-28 00:42:14 GMT 37.717926 -122.380531 3,750 317 240 640
2022-11-28 00:42:11 GMT 37.714417 -122.376358 3,725 318 239 1152
2022-11-28 00:42:07 GMT 37.711411 -122.372887 3,550 319 240 2560
2022-11-28 00:42:04 GMT 37.708523 -122.369781 3,425 323 244 2432
2022-11-28 00:42:01 GMT 37.706383 -122.367691 3,350 329 242 2176
2022-11-28 00:41:59 GMT 37.701122 -122.363991 3,225 336 238 2048
2022-11-28 00:41:56 GMT 37.701122 -122.363991 3,150 340 236 2304
2022-11-28 00:41:51 GMT 37.696472 -122.361923 2,975 348 232 2816
2022-11-28 00:41:47 GMT 37.692490 -122.360931 2,675 0 228 3072
2022-11-28 00:41:44 GMT 37.688366 -122.360588 2,575 0 228 3072
2022-11-28 00:41:40 GMT 37.685532 -122.360580 2,400 2 227 2624
2022-11-28 00:41:37 GMT 37.681137 -122.360870 2,300 3 221 2048
2022-11-28 00:41:33 GMT 37.676914 -122.361244 2,175 4 217 1792
2022-11-28 00:41:30 GMT 37.674492 -122.361481 2,100 3 215 1792
2022-11-28 00:41:25 GMT 37.670288 -122.361870 1,875 4 205 1984
2022-11-28 00:41:22 GMT 37.667465 -122.362083 1,825 4 205 1984
2022-11-28 00:41:20 GMT 37.664997 -122.362320 1,775 5 202 1920
2022-11-28 00:41:19 GMT 37.663193 -122.362511 1,725 5 198 1728
2022-11-28 00:41:16 GMT 37.661785 -122.362679 1,675 5 198 1728
2022-11-28 00:41:14 GMT 37.658852 -122.363037 1,625 5 196 1728
2022-11-28 00:41:10 GMT 37.655128 -122.363457 1,500 4 189 1280
2022-11-28 00:41:06 GMT 37.651497 -122.363815 1,400 5 180 1216
2022-11-28 00:41:03 GMT 37.649918 -122.364029 1,375 5 172 1088
2022-11-28 00:40:59 GMT 37.647076 -122.364349 1,275 5 168 1088
2022-11-28 00:40:56 GMT 37.644279 -122.364708 1,250 6 162 1344
2022-11-28 00:40:53 GMT 37.641720 -122.365067 1,150 6 157 2112
2022-11-28 00:40:50 GMT 37.639481 -122.365433 900 8 155 2432
2022-11-28 00:40:45 GMT 37.630733 -122.368172 775 15 157 2368
2022-11-28 00:40:42 GMT 37.634178 -122.366615 675 20 153 2368
2022-11-28 00:40:39 GMT 37.632065 -122.367477 625 22 154 2368
2022-11-28 00:40:35 GMT 37.629532 -122.368858 450 26 152 -224
2022-11-28 00:40:32 GMT 37.627640 -122.370071 350 26 152 -224
2022-11-28 00:40:28 GMT 37.624649 -122.372032 200 26 151 2240
2022-11-28 00:40:24 GMT 37.620750 -122.374443 25 27 150 1536
2022-11-28 00:40:21 GMT 37.620750 -122.374443 -25 27 153 -224
2022-11-28 00:40:18 GMT 37.618858 -122.375679 -75 26 145 -224
2022-11-28 00:40:15 GMT 37.617050 -122.376808 -75 27 123 -224
2022-11-28 00:40:12 GMT 37.615421 -122.377907 -75 28 123 -224
2022-11-28 00:40:09 GMT 37.613911 -122.378960 -75 27 110
2022-11-28 00:39:58 GMT 37.609997 -122.381561 0 28 65
2022-11-28 00:39:51 GMT 37.608311 -122.382652 0 27 1
2022-11-28 00:39:48 GMT 37.608231 -122.382729 0 27 1
2022-11-28 00:39:45 GMT 37.608238 -122.382736 0 27 1
2022-11-28 00:39:42 GMT 37.608231 -122.382690 0 27 1
2022-11-28 00:39:39 GMT 37.608231 -122.382729 0 27 1
2022-11-28 00:39:36 GMT 37.608280 -122.382729 0 27 1
2022-11-28 00:39:33 GMT 37.608231 -122.382721 0 27 1
2022-11-28 00:39:27 GMT 37.608250 -122.382721 0 27 1
2022-11-28 00:39:24 GMT 37.608231 -122.382698 0 27 1
2022-11-28 00:39:21 GMT 37.608231 -122.382652 0 27 1
2022-11-28 00:39:18 GMT 37.608238 -122.382690 0 27 1
2022-11-28 00:39:12 GMT 37.608238 -122.382736 0 28 0
2022-11-28 00:39:09 GMT 37.608238 -122.382736 0 27 1
2022-11-28 00:39:06 GMT 37.608250 -122.382713 0 27 1
2022-11-28 00:39:03 GMT 37.608238 -122.382668 0 27 1
2022-11-28 00:39:00 GMT 37.608231 -122.382668 0 27 1
2022-11-28 00:38:57 GMT 37.608238 -122.382683 0 27 1
2022-11-28 00:38:55 GMT 37.608238 -122.382690 0 27 0
2022-11-28 00:38:52 GMT 37.608231 -122.382698 0 27 0
2022-11-28 00:38:49 GMT 37.608250 -122.382713 0 27 0
2022-11-28 00:38:44 GMT 37.608250 -122.382721 0 27 1
2022-11-28 00:38:41 GMT 37.608231 -122.382713 0 27 1
2022-11-28 00:38:38 GMT 37.608238 -122.382698 0 27 1
2022-11-28 00:38:35 GMT 37.608250 -122.382690 0 28 3
2022-11-28 00:38:33 GMT 37.608238 -122.382690 0 30 4
2022-11-28 00:38:30 GMT 37.608219 -122.382751 0 22 6
2022-11-28 00:38:23 GMT 37.608028 -122.382797 0 119 9
2022-11-28 00:38:21 GMT 37.608040 -122.382881 0 119 10
2022-11-28 00:38:18 GMT 37.608101 -122.382988 0 115 10
2022-11-28 00:38:15 GMT 37.608170 -122.383163 0 117 7
2022-11-28 00:38:12 GMT 37.608219 -122.383324 0 121 7
2022-11-28 00:38:09 GMT 37.608280 -122.383430 0 118 5
2022-11-28 00:38:06 GMT 37.608318 -122.383499 0 100 5
2022-11-28 00:38:03 GMT 37.608398 -122.383698 0 87 1
2022-11-28 00:38:00 GMT 37.608398 -122.383713 0 87 1
2022-11-28 00:37:54 GMT 37.608410 -122.383720 0 86 1
2022-11-28 00:37:51 GMT 37.608410 -122.383743 0 86 1
2022-11-28 00:37:48 GMT 37.608459 -122.383789 0 86 1
2022-11-28 00:37:45 GMT 37.608440 -122.383781 0 86 1
2022-11-28 00:37:42 GMT 37.608452 -122.383789 0 86 1
2022-11-28 00:37:39 GMT 37.608452 -122.383797 0 86 1
2022-11-28 00:37:33 GMT 37.608429 -122.383774 0 86 0
2022-11-28 00:37:30 GMT 37.608421 -122.383781 0 86 0
2022-11-28 00:37:27 GMT 37.608372 -122.383690 0 86 0
2022-11-28 00:37:24 GMT 37.608341 -122.383667 0 86 0
2022-11-28 00:37:21 GMT 37.608391 -122.383713 0 86 0
2022-11-28 00:37:19 GMT 37.608440 -122.383797 0 86 0
2022-11-28 00:37:16 GMT 37.608440 -122.383774 0 86 0
2022-11-28 00:37:13 GMT 37.608456 -122.383766 0 0 0
2022-11-28 00:37:11 GMT 37.608421 -122.383743 0 86 1
2022-11-28 00:37:08 GMT 37.608398 -122.383720 0 86 1
2022-11-28 00:37:05 GMT 37.608429 -122.383743 0 86 1
2022-11-28 00:37:02 GMT 37.608452 -122.383797 0 86 1
2022-11-28 00:36:59 GMT 37.608429 -122.383781 0 86 1
2022-11-28 00:36:56 GMT 37.608421 -122.383728 0 86 1
2022-11-28 00:36:53 GMT 37.608410 -122.383720 0 86 1
2022-11-28 00:36:51 GMT 37.608391 -122.383698 0 86 1
2022-11-28 00:36:48 GMT 37.608398 -122.383698 0 86 1
2022-11-28 00:36:45 GMT 37.608410 -122.383728 0 86 1
2022-11-28 00:36:42 GMT 37.608440 -122.383781 0 86 1
2022-11-28 00:36:30 GMT 37.608440 -122.383781 0 92 2
2022-11-28 00:36:27 GMT 37.608398 -122.383713 0 94 1
2022-11-28 00:36:24 GMT 37.608398 -122.383728 0 94 1
2022-11-28 00:36:22 GMT 37.608440 -122.383759 0 94 1
2022-11-28 00:36:19 GMT 37.608452 -122.383789 0 94 1
2022-11-28 00:36:16 GMT 37.608429 -122.383781 0 102 1
2022-11-28 00:36:10 GMT 37.608410 -122.383743 0 102 2
2022-11-28 00:36:07 GMT 37.608440 -122.383781 0 102 2
2022-11-28 00:36:04 GMT 37.608452 -122.383781 0 111 2
2022-11-28 00:36:01 GMT 37.608421 -122.383751 0 115 1
2022-11-28 00:35:58 GMT 37.608379 -122.383698 0 115 1
2022-11-28 00:35:55 GMT 37.608360 -122.383659 0 115 1
2022-11-28 00:35:49 GMT 37.608429 -122.383751 0 112 1
2022-11-28 00:35:43 GMT 37.608379 -122.383720 0 112 1
2022-11-28 00:35:40 GMT 37.608379 -122.383698 0 111 0
2022-11-28 00:35:37 GMT 37.608398 -122.383720 0 107 0
2022-11-28 00:35:34 GMT 37.608429 -122.383751 0 113 0
2022-11-28 00:35:31 GMT 37.608429 -122.383774 0 113 0
2022-11-28 00:35:28 GMT 37.608440 -122.383774 0 113 2
2022-11-28 00:35:25 GMT 37.608452 -122.383774 0 113 2
2022-11-28 00:35:22 GMT 37.608429 -122.383759 0 116 1
2022-11-28 00:35:19 GMT 37.608391 -122.383713 0 116 4
2022-11-28 00:35:16 GMT 37.608410 -122.383713 0 114 4
2022-11-28 00:35:13 GMT 37.608429 -122.383751 0 116 6
2022-11-28 00:35:10 GMT 37.608421 -122.383858 0 155 6
2022-11-28 00:35:07 GMT 37.608509 -122.383919 0 155 7
2022-11-28 00:35:04 GMT 37.608540 -122.384018 0 202 7
2022-11-28 00:35:02 GMT 37.608608 -122.384018 0 217 7
2022-11-28 00:35:00 GMT 37.608639 -122.383987 0 210 8
2022-11-28 00:34:58 GMT 37.608681 -122.383911 0 204 9
2022-11-28 00:34:55 GMT 37.608780 -122.383842 0 201 11
2022-11-28 00:34:52 GMT 37.608921 -122.383797 0 207 12
2022-11-28 00:34:50 GMT 37.609020 -122.383759 0 210 14
2022-11-28 00:34:47 GMT 37.609169 -122.383629 0 203 16
2022-11-28 00:34:44 GMT 37.609341 -122.383522 0 198 16
2022-11-28 00:34:41 GMT 37.609570 -122.383492 0 219 18
2022-11-28 00:34:38 GMT 37.609730 -122.383270 0 208 18
2022-11-28 00:34:32 GMT 37.610180 -122.382973 0 204 19
2022-11-28 00:34:29 GMT 37.610432 -122.382843 0 207 20
2022-11-28 00:34:26 GMT 37.610668 -122.382683 0 208 20
2022-11-28 00:34:23 GMT 37.610909 -122.382538 0 209 20
2022-11-28 00:34:20 GMT 37.611118 -122.382362 0 208 20
2022-11-28 00:34:17 GMT 37.611370 -122.382172 0 205 20
2022-11-28 00:34:14 GMT 37.611629 -122.382042 0 209 20
2022-11-28 00:34:12 GMT 37.611801 -122.381920 0 208 20
2022-11-28 00:34:09 GMT 37.612030 -122.381752 0 208 23
2022-11-28 00:34:07 GMT 37.612202 -122.381630 0 206 23
2022-11-28 00:34:03 GMT 37.612579 -122.381393 0 206 23
2022-11-28 00:34:00 GMT 37.612869 -122.381233 0 208 18
2022-11-28 00:33:57 GMT 37.613152 -122.381042 0 209 18
2022-11-28 00:33:54 GMT 37.613419 -122.380852 0 209 18
2022-11-28 00:33:51 GMT 37.613670 -122.380661 0 208 18
2022-11-28 00:33:48 GMT 37.613899 -122.380493 0 205 18
2022-11-28 00:33:45 GMT 37.614128 -122.380348 0 205 18
2022-11-28 00:33:42 GMT 37.614391 -122.380211 0 207 18
2022-11-28 00:33:39 GMT 37.614639 -122.380028 0 208 18
2022-11-28 00:33:36 GMT 37.614849 -122.379860 0 204 17
2022-11-28 00:33:33 GMT 37.615082 -122.379738 0 205 16
2022-11-28 00:33:30 GMT 37.615280 -122.379623 0 206 17
2022-11-28 00:33:28 GMT 37.615398 -122.379547 0 206 17
2022-11-28 00:33:25 GMT 37.615608 -122.379379 0 198 14
2022-11-28 00:33:22 GMT 37.615791 -122.379303 0 213 14
2022-11-28 00:33:19 GMT 37.615929 -122.379150 0 205 14
2022-11-28 00:33:16 GMT 37.616119 -122.379059 0 212 14
2022-11-28 00:33:13 GMT 37.616291 -122.378929 0 193 12
2022-11-28 00:33:10 GMT 37.616482 -122.378891 0 175 12
2022-11-28 00:33:07 GMT 37.616638 -122.378822 0 147 13
2022-11-28 00:33:04 GMT 37.616798 -122.378899 0 135 15
2022-11-28 00:32:58 GMT 37.617062 -122.379288 0 162 15
2022-11-28 00:32:55 GMT 37.617290 -122.379379 0 172 15
2022-11-28 00:32:52 GMT 37.617500 -122.379387 0 166 13
2022-11-28 00:32:49 GMT 37.617710 -122.379433 0 161 13
2022-11-28 00:32:46 GMT 37.617882 -122.379509 0 162 13
2022-11-28 00:32:43 GMT 37.618038 -122.379601 0 169 13
2022-11-28 00:32:40 GMT 37.618301 -122.379631 0 141 13
2022-11-28 00:32:37 GMT 37.618431 -122.379761 0 138 14
2022-11-28 00:32:33 GMT 37.618664 -122.380043 0 133 14
2022-11-28 00:32:30 GMT 37.618835 -122.380241 0 132 15
2022-11-28 00:32:27 GMT 37.618931 -122.380333 0 126 14
2022-11-28 00:32:24 GMT 37.619068 -122.380524 0 117 16
2022-11-28 00:32:21 GMT 37.619190 -122.380768 0 106 15
2022-11-28 00:32:15 GMT 37.619308 -122.381233 0 129 18
2022-11-28 00:32:12 GMT 37.619480 -122.381508 0 115 15
2022-11-28 00:32:09 GMT 37.619579 -122.381721 0 112 15
2022-11-28 00:32:06 GMT 37.619652 -122.381973 0 116 14
2022-11-28 00:32:03 GMT 37.619751 -122.382248 0 120 14
2022-11-28 00:32:00 GMT 37.619862 -122.382477 0 119 14
2022-11-28 00:31:57 GMT 37.619949 -122.382713 0 121 14
2022-11-28 00:31:54 GMT 37.620071 -122.382927 0 120 14
2022-11-28 00:31:52 GMT 37.620121 -122.383057 0 119 14
2022-11-28 00:31:47 GMT 37.620281 -122.383423 0 121 15
2022-11-28 00:31:45 GMT 37.620369 -122.383583 0 120 12
2022-11-28 00:31:43 GMT 37.620441 -122.383682 0 115 12
2022-11-28 00:31:40 GMT 37.620499 -122.383881 0 116 13
2022-11-28 00:31:37 GMT 37.620590 -122.384079 0 115 13
2022-11-28 00:31:34 GMT 37.620670 -122.384247 0 111 13
2022-11-28 00:31:31 GMT 37.620731 -122.384468 0 110 10
2022-11-28 00:31:25 GMT 37.620819 -122.384827 0 124 12
2022-11-28 00:31:23 GMT 37.620930 -122.384956 0 83 10
2022-11-28 00:31:17 GMT 37.620892 -122.385361 0 42 7
2022-11-28 00:31:14 GMT 37.620850 -122.385483 0 30 7
2022-11-28 00:31:11 GMT 37.620800 -122.385529 0 29 7
2022-11-28 00:31:08 GMT 37.620682 -122.385620 0 26 2
2022-11-28 00:30:57 GMT 37.620491 -122.385742 0 26 1
2022-11-28 00:30:54 GMT 37.620499 -122.385727 0 26 1
2022-11-28 00:30:51 GMT 37.620491 -122.385742 0 26 1
2022-11-28 00:30:49 GMT 37.620480 -122.385742 0 26 1
2022-11-28 00:30:47 GMT 37.620480 -122.385750 0 26 1
2022-11-28 00:30:37 GMT 37.620480 -122.385773 0 26 1
2022-11-28 00:30:27 GMT 37.620480 -122.385757 0 26 1
2022-11-28 00:30:24 GMT 37.620480 -122.385750 0 26 1
2022-11-28 00:30:15 GMT 37.620499 -122.385742 0 26 1
2022-11-28 00:30:06 GMT 37.620491 -122.385742 0 26 1
2022-11-28 00:30:03 GMT 37.620499 -122.385750 0 26 1
2022-11-28 00:29:57 GMT 37.620510 -122.385727 0 26 1
2022-11-28 00:29:48 GMT 37.620522 -122.385719 0 26 1
2022-11-28 00:29:37 GMT 37.620499 -122.385742 0 26 1
2022-11-28 00:29:32 GMT 37.620491 -122.385742 0 26 1
2022-11-28 00:29:27 GMT 37.620510 -122.385719 0 26 1
2022-11-28 00:29:21 GMT 37.620522 -122.385719 0 26 1
2022-11-28 00:29:18 GMT 37.620541 -122.385689 0 26 1
2022-11-28 00:29:16 GMT 37.620541 -122.385696 0 26 1
2022-11-28 00:29:13 GMT 37.620529 -122.385712 0 26 0
2022-11-28 00:29:11 GMT 37.620522 -122.385712 0 26 0
2022-11-28 00:29:06 GMT 37.620499 -122.385719 0 26 0
2022-11-28 00:29:03 GMT 37.620529 -122.385696 0 26 1
2022-11-28 00:29:00 GMT 37.620491 -122.385727 0 26 1
2022-11-28 00:28:57 GMT 37.620499 -122.385719 0 26 1
2022-11-28 00:28:54 GMT 37.620491 -122.385727 0 26 7
2022-11-28 00:28:51 GMT 37.620590 -122.385681 0 26 7
2022-11-28 00:28:48 GMT 37.620468 -122.385773 0 27 1
2022-11-28 00:28:45 GMT 37.620491 -122.385742 0 27 1
2022-11-28 00:28:42 GMT 37.620510 -122.385712 0 27 1
2022-11-28 00:28:39 GMT 37.620522 -122.385696 0 27 1
2022-11-28 00:28:36 GMT 37.620522 -122.385727 0 27 3
2022-11-28 00:28:33 GMT 37.620548 -122.385712 0 27 3
2022-11-28 00:28:28 GMT 37.620609 -122.385727 0 30 3
2022-11-28 00:28:25 GMT 37.620621 -122.385757 0 35 3
2022-11-28 00:28:22 GMT 37.620621 -122.385818 0 48 3
2022-11-28 00:28:19 GMT 37.620651 -122.385872 0 64 3
2022-11-28 00:28:16 GMT 37.620689 -122.385902 0 290 3
2022-11-28 00:28:13 GMT 37.620731 -122.385918 0 278 3
2022-11-28 00:28:10 GMT 37.620750 -122.385963 0 268 3
2022-11-28 00:28:07 GMT 37.620739 -122.386017 0 283 3
2022-11-28 00:28:04 GMT 37.620750 -122.386078 0 59 3
2022-11-28 00:28:01 GMT 37.620762 -122.386139 0 13 3
2022-11-28 00:27:58 GMT 37.620770 -122.386223 0 7 3
2022-11-28 00:27:48 GMT 37.620911 -122.386299 0 96 0
2022-11-28 00:27:45 GMT 37.620911 -122.386322 0 96 0
2022-11-28 00:27:33 GMT 37.620918 -122.386353 0 179 0
2022-11-28 00:26:34 GMT 37.620880 -122.386353 0 36 1
2022-11-28 00:26:31 GMT 37.620861 -122.386360 0 36 1
2022-11-28 00:26:25 GMT 37.620762 -122.386452 0 29 1
2022-11-28 00:26:23 GMT 37.620811 -122.386383 0 29 1
2022-11-28 00:26:21 GMT 37.620819 -122.386383 0 29 1

Making use of Plane Finder data

You are free to use the raw flight data, aircraft information and images provided in this report for your own purposes provided the data is correctly attributed to Plane Finder. We ask that you please credit Plane Finder and link to planefinder.net in close proximity to the content.

Optionally one of the following logos (no smaller then 150x24px) can be used and must link to planefinder.net

Embedding the Plane Finder map

You are welcome to embed the Plane Finder playback map on your website to offer visitors a more interactive experience. We suggest using the following HTML code:

<iframe src="//planefinder.net/data/report/UA5405-N881AS-7700-squawk-2022-11-28/map" width="800" height="600" seamless="seamless"></iframe>

Where our data comes from

Plane Finder has a global network of data feeds and antenna radars that receive data broadcast directly from aircraft. The primary technologies used are ADS-B and MLAT. We also show feeds from the FAA and a FLARM glider feed.

Click here to find out more about the Plane Finder network.

How we collect our data